sensor_id;sensor_type;location;lat;lon;timestamp;P1;durP1;ratioP1;P2;durP2;ratioP2
20880;SDS011;10600;53.096;8.802;2024-01-06T00:00:06;23.20;;;12.38;;
20880;SDS011;10600;53.096;8.802;2024-01-06T00:01:10;23.20;;;11.88;;
20880;SDS011;10600;53.096;8.802;2024-01-06T00:02:12;21.33;;;12.13;;
20880;SDS011;10600;53.096;8.802;2024-01-06T00:03:12;20.80;;;11.25;;
20880;SDS011;10600;53.096;8.802;2024-01-06T00:04:13;26.58;;;12.68;;
20880;SDS011;10600;53.096;8.802;2024-01-06T00:05:14;20.50;;;11.73;;
20880;SDS011;10600;53.096;8.802;2024-01-06T00:06:14;23.45;;;11.23;;
20880;SDS011;10600;53.096;8.802;2024-01-06T00:07:15;22.65;;;12.10;;
20880;SDS011;10600;53.096;8.802;2024-01-06T00:08:15;25.23;;;12.45;;
20880;SDS011;10600;53.096;8.802;2024-01-06T00:09:16;24.25;;;11.80;;
20880;SDS011;10600;53.096;8.802;2024-01-06T00:10:17;19.95;;;11.60;;
20880;SDS011;10600;53.096;8.802;2024-01-06T00:11:17;22.80;;;11.30;;
20880;SDS011;10600;53.096;8.802;2024-01-06T00:12:18;22.75;;;12.40;;
20880;SDS011;10600;53.096;8.802;2024-01-06T00:13:18;22.00;;;11.43;;
20880;SDS011;10600;53.096;8.802;2024-01-06T00:14:19;23.58;;;12.15;;
20880;SDS011;10600;53.096;8.802;2024-01-06T00:15:19;25.80;;;13.27;;
20880;SDS011;10600;53.096;8.802;2024-01-06T00:16:20;21.55;;;11.50;;
20880;SDS011;10600;53.096;8.802;2024-01-06T00:17:20;22.85;;;12.50;;
20880;SDS011;10600;53.096;8.802;2024-01-06T00:18:21;23.90;;;12.38;;
20880;SDS011;10600;53.096;8.802;2024-01-06T00:19:21;25.67;;;13.20;;
20880;SDS011;10600;53.096;8.802;2024-01-06T00:20:22;21.02;;;11.45;;
20880;SDS011;10600;53.096;8.802;2024-01-06T00:21:22;24.30;;;12.50;;
20880;SDS011;10600;53.096;8.802;2024-01-06T00:22:23;23.80;;;12.13;;
20880;SDS011;10600;53.096;8.802;2024-01-06T00:23:23;20.63;;;11.98;;
20880;SDS011;10600;53.096;8.802;2024-01-06T00:24:24;20.65;;;11.88;;
20880;SDS011;10600;53.096;8.802;2024-01-06T00:25:25;19.45;;;11.13;;
20880;SDS011;10600;53.096;8.802;2024-01-06T00:26:25;24.77;;;12.80;;
20880;SDS011;10600;53.096;8.802;2024-01-06T00:27:26;22.27;;;12.32;;
20880;SDS011;10600;53.096;8.802;2024-01-06T00:28:26;24.38;;;12.82;;
20880;SDS011;10600;53.096;8.802;2024-01-06T00:29:27;26.65;;;12.02;;
20880;SDS011;10600;53.096;8.802;2024-01-06T00:30:27;23.63;;;12.10;;
20880;SDS011;10600;53.096;8.802;2024-01-06T00:31:28;20.50;;;11.10;;
20880;SDS011;10600;53.096;8.802;2024-01-06T00:32:28;23.67;;;11.82;;
20880;SDS011;10600;53.096;8.802;2024-01-06T00:33:29;22.08;;;12.07;;
20880;SDS011;10600;53.096;8.802;2024-01-06T00:34:29;22.75;;;11.57;;
20880;SDS011;10600;53.096;8.802;2024-01-06T00:35:30;22.83;;;11.95;;
20880;SDS011;10600;53.096;8.802;2024-01-06T00:36:30;24.88;;;12.23;;
20880;SDS011;10600;53.096;8.802;2024-01-06T00:37:31;25.17;;;12.40;;
20880;SDS011;10600;53.096;8.802;2024-01-06T00:38:31;23.65;;;10.85;;
20880;SDS011;10600;53.096;8.802;2024-01-06T00:39:32;26.25;;;13.25;;
20880;SDS011;10600;53.096;8.802;2024-01-06T00:40:32;23.52;;;12.48;;
20880;SDS011;10600;53.096;8.802;2024-01-06T00:41:33;25.02;;;11.80;;
20880;SDS011;10600;53.096;8.802;2024-01-06T00:42:34;24.23;;;11.98;;
20880;SDS011;10600;53.096;8.802;2024-01-06T00:43:35;22.40;;;11.70;;
20880;SDS011;10600;53.096;8.802;2024-01-06T00:44:35;24.20;;;12.45;;
20880;SDS011;10600;53.096;8.802;2024-01-06T00:45:36;23.15;;;12.75;;
20880;SDS011;10600;53.096;8.802;2024-01-06T00:46:38;22.70;;;12.05;;
20880;SDS011;10600;53.096;8.802;2024-01-06T00:47:39;23.45;;;12.23;;
20880;SDS011;10600;53.096;8.802;2024-01-06T00:48:39;21.85;;;11.50;;
20880;SDS011;10600;53.096;8.802;2024-01-06T00:49:40;24.90;;;12.18;;
20880;SDS011;10600;53.096;8.802;2024-01-06T00:50:40;25.02;;;12.30;;
20880;SDS011;10600;53.096;8.802;2024-01-06T00:51:41;21.98;;;11.48;;
20880;SDS011;10600;53.096;8.802;2024-01-06T00:52:41;25.38;;;12.05;;
20880;SDS011;10600;53.096;8.802;2024-01-06T00:53:42;25.02;;;11.90;;
20880;SDS011;10600;53.096;8.802;2024-01-06T00:54:43;26.27;;;12.77;;
20880;SDS011;10600;53.096;8.802;2024-01-06T00:55:43;24.02;;;12.10;;
20880;SDS011;10600;53.096;8.802;2024-01-06T00:56:44;24.02;;;12.27;;
20880;SDS011;10600;53.096;8.802;2024-01-06T00:57:44;19.77;;;11.43;;
20880;SDS011;10600;53.096;8.802;2024-01-06T00:58:45;21.65;;;11.85;;
20880;SDS011;10600;53.096;8.802;2024-01-06T00:59:46;24.33;;;11.68;;
20880;SDS011;10600;53.096;8.802;2024-01-06T01:00:46;23.98;;;11.65;;
20880;SDS011;10600;53.096;8.802;2024-01-06T01:01:47;20.92;;;11.85;;
20880;SDS011;10600;53.096;8.802;2024-01-06T01:02:47;21.48;;;10.32;;
20880;SDS011;10600;53.096;8.802;2024-01-06T01:03:48;20.83;;;11.18;;
20880;SDS011;10600;53.096;8.802;2024-01-06T01:04:48;21.65;;;11.75;;
20880;SDS011;10600;53.096;8.802;2024-01-06T01:05:49;24.38;;;11.38;;
20880;SDS011;10600;53.096;8.802;2024-01-06T01:06:49;21.33;;;11.40;;
20880;SDS011;10600;53.096;8.802;2024-01-06T01:07:50;20.17;;;10.63;;
20880;SDS011;10600;53.096;8.802;2024-01-06T01:08:50;21.25;;;11.02;;
20880;SDS011;10600;53.096;8.802;2024-01-06T01:09:51;20.08;;;10.80;;
20880;SDS011;10600;53.096;8.802;2024-01-06T01:10:52;21.42;;;11.43;;
20880;SDS011;10600;53.096;8.802;2024-01-06T01:11:52;21.60;;;10.82;;
20880;SDS011;10600;53.096;8.802;2024-01-06T01:12:52;20.98;;;11.43;;
20880;SDS011;10600;53.096;8.802;2024-01-06T01:13:53;22.80;;;12.32;;
20880;SDS011;10600;53.096;8.802;2024-01-06T01:14:53;22.75;;;11.25;;
20880;SDS011;10600;53.096;8.802;2024-01-06T01:15:54;20.88;;;10.85;;
20880;SDS011;10600;53.096;8.802;2024-01-06T01:16:55;23.30;;;11.68;;
20880;SDS011;10600;53.096;8.802;2024-01-06T01:17:56;21.42;;;10.93;;
20880;SDS011;10600;53.096;8.802;2024-01-06T01:18:56;19.17;;;10.63;;
20880;SDS011;10600;53.096;8.802;2024-01-06T01:19:57;24.05;;;11.40;;
20880;SDS011;10600;53.096;8.802;2024-01-06T01:20:57;24.65;;;11.80;;
20880;SDS011;10600;53.096;8.802;2024-01-06T01:21:58;20.08;;;11.65;;
20880;SDS011;10600;53.096;8.802;2024-01-06T01:22:58;22.27;;;11.85;;
20880;SDS011;10600;53.096;8.802;2024-01-06T01:23:59;22.50;;;11.40;;
20880;SDS011;10600;53.096;8.802;2024-01-06T01:24:59;19.42;;;10.40;;
20880;SDS011;10600;53.096;8.802;2024-01-06T01:26:05;19.75;;;10.30;;
20880;SDS011;10600;53.096;8.802;2024-01-06T01:27:06;21.02;;;11.80;;
20880;SDS011;10600;53.096;8.802;2024-01-06T01:28:07;23.42;;;10.82;;
20880;SDS011;10600;53.096;8.802;2024-01-06T01:29:07;22.73;;;10.73;;
20880;SDS011;10600;53.096;8.802;2024-01-06T01:30:08;22.65;;;11.23;;
20880;SDS011;10600;53.096;8.802;2024-01-06T01:31:09;23.27;;;11.50;;
20880;SDS011;10600;53.096;8.802;2024-01-06T01:32:09;20.55;;;10.88;;
20880;SDS011;10600;53.096;8.802;2024-01-06T01:33:10;25.00;;;12.45;;
20880;SDS011;10600;53.096;8.802;2024-01-06T01:34:10;25.00;;;12.23;;
20880;SDS011;10600;53.096;8.802;2024-01-06T01:35:11;25.77;;;12.63;;
20880;SDS011;10600;53.096;8.802;2024-01-06T01:36:12;21.50;;;11.00;;
20880;SDS011;10600;53.096;8.802;2024-01-06T01:37:12;24.42;;;12.18;;
20880;SDS011;10600;53.096;8.802;2024-01-06T01:38:13;23.40;;;12.10;;
20880;SDS011;10600;53.096;8.802;2024-01-06T01:39:13;25.85;;;11.95;;
20880;SDS011;10600;53.096;8.802;2024-01-06T01:40:14;24.08;;;11.82;;
20880;SDS011;10600;53.096;8.802;2024-01-06T01:41:14;23.35;;;11.57;;
20880;SDS011;10600;53.096;8.802;2024-01-06T01:42:15;24.55;;;12.55;;
20880;SDS011;10600;53.096;8.802;2024-01-06T01:43:16;24.08;;;13.02;;
20880;SDS011;10600;53.096;8.802;2024-01-06T01:44:20;24.60;;;11.25;;
20880;SDS011;10600;53.096;8.802;2024-01-06T01:45:20;23.25;;;12.00;;
20880;SDS011;10600;53.096;8.802;2024-01-06T01:46:21;24.45;;;11.32;;
20880;SDS011;10600;53.096;8.802;2024-01-06T01:47:21;26.02;;;12.38;;
20880;SDS011;10600;53.096;8.802;2024-01-06T01:48:22;24.23;;;12.13;;
20880;SDS011;10600;53.096;8.802;2024-01-06T01:49:25;22.75;;;11.20;;
20880;SDS011;10600;53.096;8.802;2024-01-06T01:50:26;22.80;;;11.85;;
20880;SDS011;10600;53.096;8.802;2024-01-06T01:51:28;25.02;;;12.32;;
20880;SDS011;10600;53.096;8.802;2024-01-06T01:52:31;25.88;;;12.95;;
20880;SDS011;10600;53.096;8.802;2024-01-06T01:53:32;23.65;;;11.95;;
20880;SDS011;10600;53.096;8.802;2024-01-06T01:54:33;29.38;;;13.73;;
20880;SDS011;10600;53.096;8.802;2024-01-06T01:55:34;26.23;;;13.13;;
20880;SDS011;10600;53.096;8.802;2024-01-06T01:56:35;25.88;;;13.45;;
20880;SDS011;10600;53.096;8.802;2024-01-06T01:57:38;26.90;;;13.32;;
20880;SDS011;10600;53.096;8.802;2024-01-06T01:58:39;23.95;;;12.57;;
20880;SDS011;10600;53.096;8.802;2024-01-06T01:59:41;28.67;;;12.05;;
20880;SDS011;10600;53.096;8.802;2024-01-06T02:00:42;29.25;;;13.10;;
20880;SDS011;10600;53.096;8.802;2024-01-06T02:01:42;25.85;;;12.13;;
20880;SDS011;10600;53.096;8.802;2024-01-06T02:02:43;22.65;;;11.63;;
20880;SDS011;10600;53.096;8.802;2024-01-06T02:03:44;24.98;;;13.02;;
20880;SDS011;10600;53.096;8.802;2024-01-06T02:04:44;23.20;;;12.20;;
20880;SDS011;10600;53.096;8.802;2024-01-06T02:05:45;24.40;;;12.77;;
20880;SDS011;10600;53.096;8.802;2024-01-06T02:06:46;26.42;;;12.40;;
20880;SDS011;10600;53.096;8.802;2024-01-06T02:07:46;26.27;;;12.48;;
20880;SDS011;10600;53.096;8.802;2024-01-06T02:08:47;25.60;;;11.95;;
20880;SDS011;10600;53.096;8.802;2024-01-06T02:09:48;24.20;;;12.35;;
20880;SDS011;10600;53.096;8.802;2024-01-06T02:10:48;24.75;;;12.30;;
20880;SDS011;10600;53.096;8.802;2024-01-06T02:11:49;22.92;;;11.60;;
20880;SDS011;10600;53.096;8.802;2024-01-06T02:12:49;26.15;;;11.63;;
20880;SDS011;10600;53.096;8.802;2024-01-06T02:13:51;25.02;;;12.77;;
20880;SDS011;10600;53.096;8.802;2024-01-06T02:14:52;24.52;;;12.27;;
20880;SDS011;10600;53.096;8.802;2024-01-06T02:15:52;26.85;;;12.07;;
20880;SDS011;10600;53.096;8.802;2024-01-06T02:16:53;24.80;;;12.65;;
20880;SDS011;10600;53.096;8.802;2024-01-06T02:17:53;24.23;;;11.52;;
20880;SDS011;10600;53.096;8.802;2024-01-06T02:18:54;25.83;;;12.55;;
20880;SDS011;10600;53.096;8.802;2024-01-06T02:19:55;25.48;;;12.05;;
20880;SDS011;10600;53.096;8.802;2024-01-06T02:21:00;26.83;;;12.95;;
20880;SDS011;10600;53.096;8.802;2024-01-06T02:22:01;26.40;;;12.77;;
20880;SDS011;10600;53.096;8.802;2024-01-06T02:23:02;23.52;;;12.05;;
20880;SDS011;10600;53.096;8.802;2024-01-06T02:24:02;25.48;;;12.35;;
20880;SDS011;10600;53.096;8.802;2024-01-06T02:25:06;25.75;;;12.50;;
20880;SDS011;10600;53.096;8.802;2024-01-06T02:26:13;22.42;;;10.15;;
20880;SDS011;10600;53.096;8.802;2024-01-06T02:27:14;25.92;;;12.25;;
20880;SDS011;10600;53.096;8.802;2024-01-06T02:28:15;26.60;;;11.85;;
20880;SDS011;10600;53.096;8.802;2024-01-06T02:29:15;21.38;;;11.18;;
20880;SDS011;10600;53.096;8.802;2024-01-06T02:30:16;23.02;;;11.95;;
20880;SDS011;10600;53.096;8.802;2024-01-06T02:31:17;24.30;;;12.13;;
20880;SDS011;10600;53.096;8.802;2024-01-06T02:32:17;24.95;;;11.88;;
20880;SDS011;10600;53.096;8.802;2024-01-06T02:33:18;26.00;;;12.00;;
20880;SDS011;10600;53.096;8.802;2024-01-06T02:34:23;23.42;;;11.73;;
20880;SDS011;10600;53.096;8.802;2024-01-06T02:35:24;25.75;;;10.98;;
20880;SDS011;10600;53.096;8.802;2024-01-06T02:36:24;24.90;;;12.48;;
20880;SDS011;10600;53.096;8.802;2024-01-06T02:37:25;26.25;;;11.98;;
20880;SDS011;10600;53.096;8.802;2024-01-06T02:38:25;23.05;;;12.80;;
20880;SDS011;10600;53.096;8.802;2024-01-06T02:39:26;23.65;;;11.95;;
20880;SDS011;10600;53.096;8.802;2024-01-06T02:40:26;27.60;;;13.15;;
20880;SDS011;10600;53.096;8.802;2024-01-06T02:41:27;21.55;;;11.32;;
20880;SDS011;10600;53.096;8.802;2024-01-06T02:42:27;23.48;;;12.15;;
20880;SDS011;10600;53.096;8.802;2024-01-06T02:43:28;22.70;;;11.18;;
20880;SDS011;10600;53.096;8.802;2024-01-06T02:44:28;24.30;;;11.57;;
20880;SDS011;10600;53.096;8.802;2024-01-06T02:45:29;25.77;;;12.45;;
20880;SDS011;10600;53.096;8.802;2024-01-06T02:46:29;25.50;;;12.48;;
20880;SDS011;10600;53.096;8.802;2024-01-06T02:47:30;27.90;;;12.45;;
20880;SDS011;10600;53.096;8.802;2024-01-06T02:48:30;24.27;;;10.70;;
20880;SDS011;10600;53.096;8.802;2024-01-06T02:49:31;26.75;;;11.95;;
20880;SDS011;10600;53.096;8.802;2024-01-06T02:50:31;27.13;;;12.00;;
20880;SDS011;10600;53.096;8.802;2024-01-06T02:51:32;25.85;;;11.95;;
20880;SDS011;10600;53.096;8.802;2024-01-06T02:52:33;23.35;;;12.57;;
20880;SDS011;10600;53.096;8.802;2024-01-06T02:53:33;22.90;;;12.25;;
20880;SDS011;10600;53.096;8.802;2024-01-06T02:54:34;30.45;;;13.35;;
20880;SDS011;10600;53.096;8.802;2024-01-06T02:55:34;26.77;;;13.40;;
20880;SDS011;10600;53.096;8.802;2024-01-06T02:56:35;25.42;;;13.45;;
20880;SDS011;10600;53.096;8.802;2024-01-06T02:57:35;27.55;;;12.63;;
20880;SDS011;10600;53.096;8.802;2024-01-06T02:58:37;28.40;;;13.23;;
20880;SDS011;10600;53.096;8.802;2024-01-06T02:59:38;32.85;;;14.15;;
20880;SDS011;10600;53.096;8.802;2024-01-06T03:00:38;25.92;;;13.02;;
20880;SDS011;10600;53.096;8.802;2024-01-06T03:01:39;27.13;;;13.38;;
20880;SDS011;10600;53.096;8.802;2024-01-06T03:02:39;26.90;;;13.88;;
20880;SDS011;10600;53.096;8.802;2024-01-06T03:03:42;26.10;;;14.05;;
20880;SDS011;10600;53.096;8.802;2024-01-06T03:04:43;26.73;;;13.18;;
20880;SDS011;10600;53.096;8.802;2024-01-06T03:05:43;28.77;;;13.85;;
20880;SDS011;10600;53.096;8.802;2024-01-06T03:06:44;26.40;;;13.25;;
20880;SDS011;10600;53.096;8.802;2024-01-06T03:07:46;29.60;;;13.30;;
20880;SDS011;10600;53.096;8.802;2024-01-06T03:08:46;28.73;;;14.45;;
20880;SDS011;10600;53.096;8.802;2024-01-06T03:09:47;30.05;;;14.30;;
20880;SDS011;10600;53.096;8.802;2024-01-06T03:10:47;29.45;;;14.02;;
20880;SDS011;10600;53.096;8.802;2024-01-06T03:11:48;30.58;;;15.05;;
20880;SDS011;10600;53.096;8.802;2024-01-06T03:12:49;29.45;;;15.30;;
20880;SDS011;10600;53.096;8.802;2024-01-06T03:13:49;28.15;;;14.93;;
20880;SDS011;10600;53.096;8.802;2024-01-06T03:14:50;29.90;;;15.13;;
20880;SDS011;10600;53.096;8.802;2024-01-06T03:15:51;28.40;;;14.52;;
20880;SDS011;10600;53.096;8.802;2024-01-06T03:16:52;27.98;;;14.48;;
20880;SDS011;10600;53.096;8.802;2024-01-06T03:17:52;28.38;;;14.80;;
20880;SDS011;10600;53.096;8.802;2024-01-06T03:18:53;28.42;;;14.75;;
20880;SDS011;10600;53.096;8.802;2024-01-06T03:19:54;28.15;;;13.75;;
20880;SDS011;10600;53.096;8.802;2024-01-06T03:20:54;27.13;;;13.52;;
20880;SDS011;10600;53.096;8.802;2024-01-06T03:21:55;29.42;;;14.02;;
20880;SDS011;10600;53.096;8.802;2024-01-06T03:22:55;26.45;;;13.77;;
20880;SDS011;10600;53.096;8.802;2024-01-06T03:23:56;28.02;;;13.52;;
20880;SDS011;10600;53.096;8.802;2024-01-06T03:24:56;25.33;;;13.45;;
20880;SDS011;10600;53.096;8.802;2024-01-06T03:25:57;28.52;;;14.15;;
20880;SDS011;10600;53.096;8.802;2024-01-06T03:26:57;29.30;;;14.70;;
20880;SDS011;10600;53.096;8.802;2024-01-06T03:27:58;24.83;;;12.95;;
20880;SDS011;10600;53.096;8.802;2024-01-06T03:28:59;28.45;;;14.48;;
20880;SDS011;10600;53.096;8.802;2024-01-06T03:29:59;28.33;;;14.75;;
20880;SDS011;10600;53.096;8.802;2024-01-06T03:31:00;26.90;;;14.38;;
20880;SDS011;10600;53.096;8.802;2024-01-06T03:32:00;27.58;;;14.43;;
20880;SDS011;10600;53.096;8.802;2024-01-06T03:33:01;30.02;;;14.02;;
20880;SDS011;10600;53.096;8.802;2024-01-06T03:34:01;26.48;;;12.82;;
20880;SDS011;10600;53.096;8.802;2024-01-06T03:35:02;25.42;;;12.93;;
20880;SDS011;10600;53.096;8.802;2024-01-06T03:36:05;25.42;;;13.25;;
20880;SDS011;10600;53.096;8.802;2024-01-06T03:37:07;28.48;;;13.80;;
20880;SDS011;10600;53.096;8.802;2024-01-06T03:38:07;26.48;;;13.18;;
20880;SDS011;10600;53.096;8.802;2024-01-06T03:39:08;28.88;;;14.15;;
20880;SDS011;10600;53.096;8.802;2024-01-06T03:40:10;27.50;;;14.07;;
20880;SDS011;10600;53.096;8.802;2024-01-06T03:41:11;30.27;;;13.80;;
20880;SDS011;10600;53.096;8.802;2024-01-06T03:42:12;29.17;;;13.60;;
20880;SDS011;10600;53.096;8.802;2024-01-06T03:43:12;25.50;;;13.20;;
20880;SDS011;10600;53.096;8.802;2024-01-06T03:44:13;27.52;;;13.95;;
20880;SDS011;10600;53.096;8.802;2024-01-06T03:45:13;28.70;;;13.40;;
20880;SDS011;10600;53.096;8.802;2024-01-06T03:46:14;26.10;;;13.02;;
20880;SDS011;10600;53.096;8.802;2024-01-06T03:47:14;29.77;;;13.55;;
20880;SDS011;10600;53.096;8.802;2024-01-06T03:48:15;27.75;;;13.68;;
20880;SDS011;10600;53.096;8.802;2024-01-06T03:49:15;26.02;;;13.85;;
20880;SDS011;10600;53.096;8.802;2024-01-06T03:50:18;26.05;;;13.73;;
20880;SDS011;10600;53.096;8.802;2024-01-06T03:51:19;25.23;;;13.10;;
20880;SDS011;10600;53.096;8.802;2024-01-06T03:52:19;25.85;;;13.68;;
20880;SDS011;10600;53.096;8.802;2024-01-06T03:53:20;26.42;;;13.15;;
20880;SDS011;10600;53.096;8.802;2024-01-06T03:54:20;22.10;;;12.25;;
20880;SDS011;10600;53.096;8.802;2024-01-06T03:55:21;26.27;;;12.40;;
20880;SDS011;10600;53.096;8.802;2024-01-06T03:56:22;24.88;;;12.95;;
20880;SDS011;10600;53.096;8.802;2024-01-06T03:57:22;24.95;;;12.27;;
20880;SDS011;10600;53.096;8.802;2024-01-06T03:58:23;26.17;;;12.18;;
20880;SDS011;10600;53.096;8.802;2024-01-06T03:59:23;26.17;;;13.40;;
20880;SDS011;10600;53.096;8.802;2024-01-06T04:00:25;22.88;;;12.18;;
20880;SDS011;10600;53.096;8.802;2024-01-06T04:01:25;24.77;;;12.25;;
20880;SDS011;10600;53.096;8.802;2024-01-06T04:02:26;23.52;;;11.75;;
20880;SDS011;10600;53.096;8.802;2024-01-06T04:03:27;24.15;;;12.32;;
20880;SDS011;10600;53.096;8.802;2024-01-06T04:04:27;24.55;;;13.48;;
20880;SDS011;10600;53.096;8.802;2024-01-06T04:05:28;22.95;;;11.52;;
20880;SDS011;10600;53.096;8.802;2024-01-06T04:06:29;26.92;;;12.55;;
20880;SDS011;10600;53.096;8.802;2024-01-06T04:07:29;26.20;;;12.82;;
20880;SDS011;10600;53.096;8.802;2024-01-06T04:08:30;25.83;;;12.63;;
20880;SDS011;10600;53.096;8.802;2024-01-06T04:09:30;22.42;;;12.00;;
20880;SDS011;10600;53.096;8.802;2024-01-06T04:10:31;26.67;;;12.27;;
20880;SDS011;10600;53.096;8.802;2024-01-06T04:11:31;22.73;;;12.18;;
20880;SDS011;10600;53.096;8.802;2024-01-06T04:12:32;24.77;;;11.77;;
20880;SDS011;10600;53.096;8.802;2024-01-06T04:13:32;22.92;;;11.85;;
20880;SDS011;10600;53.096;8.802;2024-01-06T04:14:33;24.95;;;12.25;;
20880;SDS011;10600;53.096;8.802;2024-01-06T04:15:33;22.48;;;11.63;;
20880;SDS011;10600;53.096;8.802;2024-01-06T04:16:34;23.95;;;11.90;;
20880;SDS011;10600;53.096;8.802;2024-01-06T04:17:34;24.92;;;12.40;;
20880;SDS011;10600;53.096;8.802;2024-01-06T04:18:35;25.98;;;12.55;;
20880;SDS011;10600;53.096;8.802;2024-01-06T04:19:36;26.70;;;12.52;;
20880;SDS011;10600;53.096;8.802;2024-01-06T04:20:36;23.83;;;12.40;;
20880;SDS011;10600;53.096;8.802;2024-01-06T04:21:38;22.77;;;11.80;;
20880;SDS011;10600;53.096;8.802;2024-01-06T04:22:38;25.25;;;12.60;;
20880;SDS011;10600;53.096;8.802;2024-01-06T04:23:39;22.00;;;12.32;;
20880;SDS011;10600;53.096;8.802;2024-01-06T04:24:39;25.70;;;12.05;;
20880;SDS011;10600;53.096;8.802;2024-01-06T04:25:40;21.95;;;11.43;;
20880;SDS011;10600;53.096;8.802;2024-01-06T04:26:41;23.85;;;11.57;;
20880;SDS011;10600;53.096;8.802;2024-01-06T04:27:44;23.08;;;11.20;;
20880;SDS011;10600;53.096;8.802;2024-01-06T04:28:47;21.58;;;12.10;;
20880;SDS011;10600;53.096;8.802;2024-01-06T04:29:47;22.38;;;11.50;;
20880;SDS011;10600;53.096;8.802;2024-01-06T04:30:48;23.27;;;11.98;;
20880;SDS011;10600;53.096;8.802;2024-01-06T04:31:49;20.80;;;11.65;;
20880;SDS011;10600;53.096;8.802;2024-01-06T04:32:49;23.17;;;12.60;;
20880;SDS011;10600;53.096;8.802;2024-01-06T04:33:50;20.20;;;10.93;;
20880;SDS011;10600;53.096;8.802;2024-01-06T04:34:50;24.15;;;12.52;;
20880;SDS011;10600;53.096;8.802;2024-01-06T04:35:51;26.50;;;12.25;;
20880;SDS011;10600;53.096;8.802;2024-01-06T04:36:51;23.27;;;11.43;;
20880;SDS011;10600;53.096;8.802;2024-01-06T04:37:52;23.40;;;12.65;;
20880;SDS011;10600;53.096;8.802;2024-01-06T04:38:53;26.35;;;13.25;;
20880;SDS011;10600;53.096;8.802;2024-01-06T04:39:54;23.88;;;12.32;;
20880;SDS011;10600;53.096;8.802;2024-01-06T04:40:54;22.60;;;12.07;;
20880;SDS011;10600;53.096;8.802;2024-01-06T04:41:55;21.60;;;11.45;;
20880;SDS011;10600;53.096;8.802;2024-01-06T04:42:55;20.08;;;10.88;;
20880;SDS011;10600;53.096;8.802;2024-01-06T04:43:56;23.80;;;12.10;;
20880;SDS011;10600;53.096;8.802;2024-01-06T04:44:57;24.35;;;12.25;;
20880;SDS011;10600;53.096;8.802;2024-01-06T04:45:57;25.20;;;13.40;;
20880;SDS011;10600;53.096;8.802;2024-01-06T04:46:58;25.65;;;12.40;;
20880;SDS011;10600;53.096;8.802;2024-01-06T04:47:58;23.13;;;12.00;;
20880;SDS011;10600;53.096;8.802;2024-01-06T04:48:59;21.42;;;12.00;;
20880;SDS011;10600;53.096;8.802;2024-01-06T04:49:59;23.33;;;11.60;;
20880;SDS011;10600;53.096;8.802;2024-01-06T04:51:00;25.10;;;12.00;;
20880;SDS011;10600;53.096;8.802;2024-01-06T04:52:03;26.05;;;12.73;;
20880;SDS011;10600;53.096;8.802;2024-01-06T04:53:04;23.35;;;12.25;;
20880;SDS011;10600;53.096;8.802;2024-01-06T04:54:04;24.33;;;12.38;;
20880;SDS011;10600;53.096;8.802;2024-01-06T04:55:05;26.40;;;13.07;;
20880;SDS011;10600;53.096;8.802;2024-01-06T04:56:05;22.90;;;13.30;;
20880;SDS011;10600;53.096;8.802;2024-01-06T04:57:06;22.25;;;12.15;;
20880;SDS011;10600;53.096;8.802;2024-01-06T04:58:06;25.52;;;12.75;;
20880;SDS011;10600;53.096;8.802;2024-01-06T04:59:07;25.10;;;12.80;;
20880;SDS011;10600;53.096;8.802;2024-01-06T05:00:07;24.63;;;12.27;;
20880;SDS011;10600;53.096;8.802;2024-01-06T05:01:08;24.42;;;11.82;;
20880;SDS011;10600;53.096;8.802;2024-01-06T05:02:09;23.13;;;12.48;;
20880;SDS011;10600;53.096;8.802;2024-01-06T05:03:10;23.67;;;12.63;;
20880;SDS011;10600;53.096;8.802;2024-01-06T05:04:10;22.33;;;12.65;;
20880;SDS011;10600;53.096;8.802;2024-01-06T05:05:11;22.30;;;12.25;;
20880;SDS011;10600;53.096;8.802;2024-01-06T05:06:11;26.40;;;13.18;;
20880;SDS011;10600;53.096;8.802;2024-01-06T05:07:12;23.55;;;12.38;;
20880;SDS011;10600;53.096;8.802;2024-01-06T05:08:12;24.15;;;13.30;;
20880;SDS011;10600;53.096;8.802;2024-01-06T05:09:13;24.02;;;12.77;;
20880;SDS011;10600;53.096;8.802;2024-01-06T05:10:14;22.23;;;12.30;;
20880;SDS011;10600;53.096;8.802;2024-01-06T05:11:14;22.08;;;11.85;;
20880;SDS011;10600;53.096;8.802;2024-01-06T05:12:15;27.20;;;12.93;;
20880;SDS011;10600;53.096;8.802;2024-01-06T05:13:15;26.45;;;12.20;;
20880;SDS011;10600;53.096;8.802;2024-01-06T05:14:17;23.05;;;12.68;;
20880;SDS011;10600;53.096;8.802;2024-01-06T05:15:18;27.52;;;13.18;;
20880;SDS011;10600;53.096;8.802;2024-01-06T05:16:18;25.92;;;13.00;;
20880;SDS011;10600;53.096;8.802;2024-01-06T05:17:19;25.50;;;13.45;;
20880;SDS011;10600;53.096;8.802;2024-01-06T05:18:19;25.05;;;13.52;;
20880;SDS011;10600;53.096;8.802;2024-01-06T05:19:20;24.45;;;12.88;;
20880;SDS011;10600;53.096;8.802;2024-01-06T05:20:21;27.67;;;12.80;;
20880;SDS011;10600;53.096;8.802;2024-01-06T05:21:21;25.92;;;12.95;;
20880;SDS011;10600;53.096;8.802;2024-01-06T05:22:22;29.63;;;14.25;;
20880;SDS011;10600;53.096;8.802;2024-01-06T05:23:22;26.95;;;13.35;;
20880;SDS011;10600;53.096;8.802;2024-01-06T05:24:23;26.67;;;13.93;;
20880;SDS011;10600;53.096;8.802;2024-01-06T05:25:23;23.30;;;12.52;;
20880;SDS011;10600;53.096;8.802;2024-01-06T05:26:24;22.45;;;12.60;;
20880;SDS011;10600;53.096;8.802;2024-01-06T05:27:24;25.92;;;14.07;;
20880;SDS011;10600;53.096;8.802;2024-01-06T05:28:25;26.05;;;13.05;;
20880;SDS011;10600;53.096;8.802;2024-01-06T05:29:25;24.63;;;12.85;;
20880;SDS011;10600;53.096;8.802;2024-01-06T05:30:26;24.88;;;12.82;;
20880;SDS011;10600;53.096;8.802;2024-01-06T05:31:27;23.98;;;12.85;;
20880;SDS011;10600;53.096;8.802;2024-01-06T05:32:27;26.30;;;13.57;;
20880;SDS011;10600;53.096;8.802;2024-01-06T05:33:28;23.08;;;12.27;;
20880;SDS011;10600;53.096;8.802;2024-01-06T05:34:28;23.23;;;12.85;;
20880;SDS011;10600;53.096;8.802;2024-01-06T05:35:29;23.92;;;12.77;;
20880;SDS011;10600;53.096;8.802;2024-01-06T05:36:29;24.50;;;12.80;;
20880;SDS011;10600;53.096;8.802;2024-01-06T05:37:31;26.55;;;12.82;;
20880;SDS011;10600;53.096;8.802;2024-01-06T05:38:31;23.15;;;12.23;;
20880;SDS011;10600;53.096;8.802;2024-01-06T05:39:32;25.85;;;13.52;;
20880;SDS011;10600;53.096;8.802;2024-01-06T05:40:32;23.45;;;11.82;;
20880;SDS011;10600;53.096;8.802;2024-01-06T05:41:39;27.95;;;12.82;;
20880;SDS011;10600;53.096;8.802;2024-01-06T05:42:40;25.20;;;12.73;;
20880;SDS011;10600;53.096;8.802;2024-01-06T05:43:41;26.35;;;13.65;;
20880;SDS011;10600;53.096;8.802;2024-01-06T05:44:42;22.83;;;12.30;;
20880;SDS011;10600;53.096;8.802;2024-01-06T05:45:42;24.77;;;13.55;;
20880;SDS011;10600;53.096;8.802;2024-01-06T05:46:43;24.17;;;13.23;;
20880;SDS011;10600;53.096;8.802;2024-01-06T05:47:43;28.55;;;13.95;;
20880;SDS011;10600;53.096;8.802;2024-01-06T05:48:44;25.55;;;13.52;;
20880;SDS011;10600;53.096;8.802;2024-01-06T05:49:44;26.15;;;14.13;;
20880;SDS011;10600;53.096;8.802;2024-01-06T05:50:45;27.05;;;12.88;;
20880;SDS011;10600;53.096;8.802;2024-01-06T05:51:46;25.00;;;13.82;;
20880;SDS011;10600;53.096;8.802;2024-01-06T05:52:46;25.63;;;13.23;;
20880;SDS011;10600;53.096;8.802;2024-01-06T05:53:50;27.67;;;13.50;;
20880;SDS011;10600;53.096;8.802;2024-01-06T05:54:50;27.55;;;13.65;;